sensor_id;sensor_type;location;lat;lon;timestamp;P1;durP1;ratioP1;P2;durP2;ratioP2
79526;SDS011;68974;47.754;-3.364;2023-05-10T00:00:43;16.17;;;3.38;;
79526;SDS011;68974;47.754;-3.364;2023-05-10T00:03:09;24.10;;;3.05;;
79526;SDS011;68974;47.754;-3.364;2023-05-10T00:05:34;12.57;;;2.95;;
79526;SDS011;68974;47.754;-3.364;2023-05-10T00:08:00;12.82;;;2.35;;
79526;SDS011;68974;47.754;-3.364;2023-05-10T00:10:25;18.08;;;3.70;;
79526;SDS011;68974;47.754;-3.364;2023-05-10T00:12:50;14.32;;;2.58;;
79526;SDS011;68974;47.754;-3.364;2023-05-10T00:15:16;16.77;;;2.83;;
79526;SDS011;68974;47.754;-3.364;2023-05-10T00:17:41;16.13;;;2.63;;
79526;SDS011;68974;47.754;-3.364;2023-05-10T00:20:07;23.33;;;3.30;;
79526;SDS011;68974;47.754;-3.364;2023-05-10T00:22:32;16.13;;;3.13;;
79526;SDS011;68974;47.754;-3.364;2023-05-10T00:24:58;16.45;;;2.30;;
79526;SDS011;68974;47.754;-3.364;2023-05-10T00:27:24;17.00;;;2.50;;
79526;SDS011;68974;47.754;-3.364;2023-05-10T00:29:49;16.20;;;3.47;;
79526;SDS011;68974;47.754;-3.364;2023-05-10T00:32:14;17.35;;;2.55;;
79526;SDS011;68974;47.754;-3.364;2023-05-10T00:34:40;16.10;;;3.92;;
79526;SDS011;68974;47.754;-3.364;2023-05-10T00:37:05;17.70;;;3.78;;
79526;SDS011;68974;47.754;-3.364;2023-05-10T00:39:31;14.82;;;3.08;;
79526;SDS011;68974;47.754;-3.364;2023-05-10T00:41:56;10.07;;;2.63;;
79526;SDS011;68974;47.754;-3.364;2023-05-10T00:44:21;11.60;;;2.50;;
79526;SDS011;68974;47.754;-3.364;2023-05-10T00:46:47;16.27;;;2.60;;
79526;SDS011;68974;47.754;-3.364;2023-05-10T00:49:14;19.00;;;2.70;;
79526;SDS011;68974;47.754;-3.364;2023-05-10T00:51:40;21.42;;;3.42;;
79526;SDS011;68974;47.754;-3.364;2023-05-10T00:54:07;15.60;;;2.85;;
79526;SDS011;68974;47.754;-3.364;2023-05-10T00:56:35;16.35;;;2.70;;
79526;SDS011;68974;47.754;-3.364;2023-05-10T00:59:01;25.52;;;3.38;;
79526;SDS011;68974;47.754;-3.364;2023-05-10T01:01:27;16.77;;;2.55;;
79526;SDS011;68974;47.754;-3.364;2023-05-10T01:03:53;21.75;;;3.15;;
79526;SDS011;68974;47.754;-3.364;2023-05-10T01:06:20;20.77;;;2.83;;
79526;SDS011;68974;47.754;-3.364;2023-05-10T01:08:45;21.58;;;3.25;;
79526;SDS011;68974;47.754;-3.364;2023-05-10T01:11:12;17.50;;;3.42;;
79526;SDS011;68974;47.754;-3.364;2023-05-10T01:13:38;15.55;;;2.35;;
79526;SDS011;68974;47.754;-3.364;2023-05-10T01:16:06;13.52;;;2.22;;
79526;SDS011;68974;47.754;-3.364;2023-05-10T01:18:35;25.15;;;4.18;;
79526;SDS011;68974;47.754;-3.364;2023-05-10T01:23:59;16.95;;;2.70;;
79526;SDS011;68974;47.754;-3.364;2023-05-10T01:29:24;18.70;;;2.63;;
79526;SDS011;68974;47.754;-3.364;2023-05-10T01:34:42;20.75;;;3.72;;
79526;SDS011;68974;47.754;-3.364;2023-05-10T01:37:21;15.25;;;2.92;;
79526;SDS011;68974;47.754;-3.364;2023-05-10T01:42:29;19.20;;;3.05;;
79526;SDS011;68974;47.754;-3.364;2023-05-10T01:45:15;11.82;;;2.53;;
79526;SDS011;68974;47.754;-3.364;2023-05-10T01:48:02;19.35;;;3.47;;
79526;SDS011;68974;47.754;-3.364;2023-05-10T01:50:31;18.45;;;2.67;;
79526;SDS011;68974;47.754;-3.364;2023-05-10T01:52:59;28.70;;;3.33;;
79526;SDS011;68974;47.754;-3.364;2023-05-10T01:55:27;17.38;;;3.60;;
79526;SDS011;68974;47.754;-3.364;2023-05-10T01:57:58;16.63;;;2.47;;
79526;SDS011;68974;47.754;-3.364;2023-05-10T02:00:28;21.10;;;2.92;;
79526;SDS011;68974;47.754;-3.364;2023-05-10T02:02:56;15.02;;;3.20;;
79526;SDS011;68974;47.754;-3.364;2023-05-10T02:05:22;20.83;;;3.85;;
79526;SDS011;68974;47.754;-3.364;2023-05-10T02:07:49;14.88;;;3.13;;
79526;SDS011;68974;47.754;-3.364;2023-05-10T02:10:16;15.98;;;2.95;;
79526;SDS011;68974;47.754;-3.364;2023-05-10T02:12:43;12.85;;;2.53;;
79526;SDS011;68974;47.754;-3.364;2023-05-10T02:15:11;17.83;;;2.75;;
79526;SDS011;68974;47.754;-3.364;2023-05-10T02:17:40;15.80;;;2.78;;
79526;SDS011;68974;47.754;-3.364;2023-05-10T02:20:08;18.42;;;3.53;;
79526;SDS011;68974;47.754;-3.364;2023-05-10T02:22:35;17.42;;;2.75;;
79526;SDS011;68974;47.754;-3.364;2023-05-10T02:25:02;13.98;;;3.05;;
79526;SDS011;68974;47.754;-3.364;2023-05-10T02:27:29;15.18;;;2.65;;
79526;SDS011;68974;47.754;-3.364;2023-05-10T02:29:55;23.10;;;3.20;;
79526;SDS011;68974;47.754;-3.364;2023-05-10T02:32:22;11.23;;;2.83;;
79526;SDS011;68974;47.754;-3.364;2023-05-10T02:34:50;14.93;;;2.55;;
79526;SDS011;68974;47.754;-3.364;2023-05-10T02:37:18;12.57;;;2.17;;
79526;SDS011;68974;47.754;-3.364;2023-05-10T02:39:48;19.00;;;3.13;;
79526;SDS011;68974;47.754;-3.364;2023-05-10T02:42:16;29.63;;;4.18;;
79526;SDS011;68974;47.754;-3.364;2023-05-10T02:47:10;14.32;;;2.50;;
79526;SDS011;68974;47.754;-3.364;2023-05-10T02:49:39;18.38;;;3.03;;
79526;SDS011;68974;47.754;-3.364;2023-05-10T02:52:05;17.40;;;2.63;;
79526;SDS011;68974;47.754;-3.364;2023-05-10T02:54:33;15.10;;;2.72;;
79526;SDS011;68974;47.754;-3.364;2023-05-10T02:57:06;18.98;;;3.22;;
79526;SDS011;68974;47.754;-3.364;2023-05-10T02:59:35;29.52;;;3.25;;
79526;SDS011;68974;47.754;-3.364;2023-05-10T03:02:01;13.88;;;2.65;;
79526;SDS011;68974;47.754;-3.364;2023-05-10T03:04:28;18.33;;;3.45;;
79526;SDS011;68974;47.754;-3.364;2023-05-10T03:06:54;21.15;;;3.38;;
79526;SDS011;68974;47.754;-3.364;2023-05-10T03:09:19;19.15;;;2.85;;
79526;SDS011;68974;47.754;-3.364;2023-05-10T03:11:56;16.88;;;2.40;;
79526;SDS011;68974;47.754;-3.364;2023-05-10T03:17:04;25.30;;;3.03;;
79526;SDS011;68974;47.754;-3.364;2023-05-10T03:20:16;18.08;;;2.80;;
79526;SDS011;68974;47.754;-3.364;2023-05-10T03:22:47;16.25;;;2.38;;
79526;SDS011;68974;47.754;-3.364;2023-05-10T03:25:15;17.63;;;2.80;;
79526;SDS011;68974;47.754;-3.364;2023-05-10T03:27:42;14.25;;;2.33;;
79526;SDS011;68974;47.754;-3.364;2023-05-10T03:30:10;18.63;;;3.28;;
79526;SDS011;68974;47.754;-3.364;2023-05-10T03:32:36;11.15;;;2.13;;
79526;SDS011;68974;47.754;-3.364;2023-05-10T03:35:06;13.88;;;2.35;;
79526;SDS011;68974;47.754;-3.364;2023-05-10T03:37:35;18.45;;;3.03;;
79526;SDS011;68974;47.754;-3.364;2023-05-10T03:40:01;15.48;;;2.75;;
79526;SDS011;68974;47.754;-3.364;2023-05-10T03:42:27;16.20;;;2.58;;
79526;SDS011;68974;47.754;-3.364;2023-05-10T03:44:52;12.60;;;2.13;;
79526;SDS011;68974;47.754;-3.364;2023-05-10T03:47:18;15.38;;;2.58;;
79526;SDS011;68974;47.754;-3.364;2023-05-10T03:49:43;12.27;;;1.95;;
79526;SDS011;68974;47.754;-3.364;2023-05-10T03:52:09;12.68;;;2.85;;
79526;SDS011;68974;47.754;-3.364;2023-05-10T03:54:34;12.73;;;2.30;;
79526;SDS011;68974;47.754;-3.364;2023-05-10T03:56:59;10.98;;;2.13;;
79526;SDS011;68974;47.754;-3.364;2023-05-10T03:59:26;10.98;;;1.85;;
79526;SDS011;68974;47.754;-3.364;2023-05-10T04:01:51;8.85;;;2.08;;
79526;SDS011;68974;47.754;-3.364;2023-05-10T04:04:17;12.20;;;2.28;;
79526;SDS011;68974;47.754;-3.364;2023-05-10T04:06:43;16.13;;;2.83;;
79526;SDS011;68974;47.754;-3.364;2023-05-10T04:09:09;15.98;;;2.78;;
79526;SDS011;68974;47.754;-3.364;2023-05-10T04:11:35;17.02;;;3.55;;
79526;SDS011;68974;47.754;-3.364;2023-05-10T04:14:01;16.38;;;3.58;;
79526;SDS011;68974;47.754;-3.364;2023-05-10T04:16:26;17.10;;;2.65;;
79526;SDS011;68974;47.754;-3.364;2023-05-10T04:18:51;10.85;;;3.50;;
79526;SDS011;68974;47.754;-3.364;2023-05-10T04:21:17;11.68;;;3.15;;
79526;SDS011;68974;47.754;-3.364;2023-05-10T04:23:42;17.02;;;3.70;;
79526;SDS011;68974;47.754;-3.364;2023-05-10T04:26:08;16.70;;;4.68;;
79526;SDS011;68974;47.754;-3.364;2023-05-10T04:28:33;15.38;;;3.00;;
79526;SDS011;68974;47.754;-3.364;2023-05-10T04:31:05;12.02;;;2.10;;
79526;SDS011;68974;47.754;-3.364;2023-05-10T04:33:32;12.05;;;2.10;;
79526;SDS011;68974;47.754;-3.364;2023-05-10T04:35:58;17.70;;;3.42;;
79526;SDS011;68974;47.754;-3.364;2023-05-10T04:38:24;12.32;;;2.47;;
79526;SDS011;68974;47.754;-3.364;2023-05-10T04:40:50;15.75;;;2.58;;
79526;SDS011;68974;47.754;-3.364;2023-05-10T04:43:15;12.70;;;2.08;;
79526;SDS011;68974;47.754;-3.364;2023-05-10T04:45:41;14.50;;;2.05;;
79526;SDS011;68974;47.754;-3.364;2023-05-10T04:48:06;15.73;;;2.83;;
79526;SDS011;68974;47.754;-3.364;2023-05-10T04:50:32;14.63;;;2.67;;
79526;SDS011;68974;47.754;-3.364;2023-05-10T04:52:58;15.07;;;2.92;;
79526;SDS011;68974;47.754;-3.364;2023-05-10T04:55:23;9.40;;;2.60;;
79526;SDS011;68974;47.754;-3.364;2023-05-10T04:57:49;16.35;;;3.17;;
79526;SDS011;68974;47.754;-3.364;2023-05-10T05:00:14;19.75;;;4.18;;
79526;SDS011;68974;47.754;-3.364;2023-05-10T05:02:43;13.27;;;2.65;;
79526;SDS011;68974;47.754;-3.364;2023-05-10T05:05:10;12.30;;;1.80;;
79526;SDS011;68974;47.754;-3.364;2023-05-10T05:07:38;16.48;;;4.50;;
79526;SDS011;68974;47.754;-3.364;2023-05-10T05:10:07;17.00;;;2.97;;
79526;SDS011;68974;47.754;-3.364;2023-05-10T05:12:33;17.13;;;4.28;;
79526;SDS011;68974;47.754;-3.364;2023-05-10T05:14:59;12.63;;;2.30;;
79526;SDS011;68974;47.754;-3.364;2023-05-10T05:17:25;18.77;;;3.75;;
79526;SDS011;68974;47.754;-3.364;2023-05-10T05:19:50;15.77;;;2.67;;
79526;SDS011;68974;47.754;-3.364;2023-05-10T05:22:16;18.05;;;3.30;;
79526;SDS011;68974;47.754;-3.364;2023-05-10T05:24:41;13.18;;;2.45;;
79526;SDS011;68974;47.754;-3.364;2023-05-10T05:27:07;15.88;;;2.25;;
79526;SDS011;68974;47.754;-3.364;2023-05-10T05:29:32;16.38;;;3.45;;
79526;SDS011;68974;47.754;-3.364;2023-05-10T05:31:57;17.75;;;3.72;;
79526;SDS011;68974;47.754;-3.364;2023-05-10T05:34:23;12.93;;;2.75;;
79526;SDS011;68974;47.754;-3.364;2023-05-10T05:36:49;12.82;;;2.92;;
79526;SDS011;68974;47.754;-3.364;2023-05-10T05:39:15;17.25;;;3.15;;
79526;SDS011;68974;47.754;-3.364;2023-05-10T05:41:40;14.63;;;3.38;;
79526;SDS011;68974;47.754;-3.364;2023-05-10T05:44:06;18.73;;;2.95;;
79526;SDS011;68974;47.754;-3.364;2023-05-10T05:46:31;15.80;;;3.00;;
79526;SDS011;68974;47.754;-3.364;2023-05-10T05:48:56;15.50;;;2.28;;
79526;SDS011;68974;47.754;-3.364;2023-05-10T05:51:22;15.60;;;2.72;;
79526;SDS011;68974;47.754;-3.364;2023-05-10T05:53:47;14.95;;;2.95;;
79526;SDS011;68974;47.754;-3.364;2023-05-10T05:56:13;21.35;;;3.53;;
79526;SDS011;68974;47.754;-3.364;2023-05-10T05:58:38;12.95;;;2.40;;
79526;SDS011;68974;47.754;-3.364;2023-05-10T06:01:03;19.13;;;3.10;;
79526;SDS011;68974;47.754;-3.364;2023-05-10T06:03:29;18.20;;;2.70;;
79526;SDS011;68974;47.754;-3.364;2023-05-10T06:05:54;13.38;;;3.80;;
79526;SDS011;68974;47.754;-3.364;2023-05-10T06:08:20;19.20;;;3.88;;
79526;SDS011;68974;47.754;-3.364;2023-05-10T06:10:45;16.35;;;4.25;;
79526;SDS011;68974;47.754;-3.364;2023-05-10T06:13:11;18.85;;;4.35;;
79526;SDS011;68974;47.754;-3.364;2023-05-10T06:15:37;13.38;;;2.88;;
79526;SDS011;68974;47.754;-3.364;2023-05-10T06:18:03;21.25;;;3.80;;
79526;SDS011;68974;47.754;-3.364;2023-05-10T06:20:28;20.25;;;3.05;;
79526;SDS011;68974;47.754;-3.364;2023-05-10T06:22:56;16.08;;;2.72;;
79526;SDS011;68974;47.754;-3.364;2023-05-10T06:25:22;16.60;;;2.88;;
79526;SDS011;68974;47.754;-3.364;2023-05-10T06:27:47;15.95;;;3.40;;
79526;SDS011;68974;47.754;-3.364;2023-05-10T06:30:14;13.85;;;2.33;;
79526;SDS011;68974;47.754;-3.364;2023-05-10T06:32:40;18.20;;;3.63;;
79526;SDS011;68974;47.754;-3.364;2023-05-10T06:35:06;22.10;;;4.57;;
79526;SDS011;68974;47.754;-3.364;2023-05-10T06:37:32;19.27;;;4.47;;
79526;SDS011;68974;47.754;-3.364;2023-05-10T06:39:59;17.27;;;4.50;;
79526;SDS011;68974;47.754;-3.364;2023-05-10T06:42:24;13.32;;;3.78;;
79526;SDS011;68974;47.754;-3.364;2023-05-10T06:44:50;10.63;;;3.67;;
79526;SDS011;68974;47.754;-3.364;2023-05-10T06:47:16;14.57;;;4.90;;
79526;SDS011;68974;47.754;-3.364;2023-05-10T06:49:42;12.02;;;2.92;;
79526;SDS011;68974;47.754;-3.364;2023-05-10T06:52:07;13.52;;;2.47;;
79526;SDS011;68974;47.754;-3.364;2023-05-10T06:54:32;14.35;;;2.53;;
79526;SDS011;68974;47.754;-3.364;2023-05-10T06:56:58;11.97;;;1.93;;
79526;SDS011;68974;47.754;-3.364;2023-05-10T06:59:23;14.32;;;2.95;;
79526;SDS011;68974;47.754;-3.364;2023-05-10T07:01:49;9.68;;;2.30;;
79526;SDS011;68974;47.754;-3.364;2023-05-10T07:04:14;13.63;;;2.42;;
79526;SDS011;68974;47.754;-3.364;2023-05-10T07:06:39;14.98;;;2.25;;
79526;SDS011;68974;47.754;-3.364;2023-05-10T07:09:05;12.82;;;2.67;;
79526;SDS011;68974;47.754;-3.364;2023-05-10T07:11:30;18.85;;;3.55;;
79526;SDS011;68974;47.754;-3.364;2023-05-10T07:13:56;12.85;;;2.47;;
79526;SDS011;68974;47.754;-3.364;2023-05-10T07:16:21;14.88;;;3.45;;
79526;SDS011;68974;47.754;-3.364;2023-05-10T07:18:47;8.77;;;2.17;;
79526;SDS011;68974;47.754;-3.364;2023-05-10T07:21:12;11.65;;;2.72;;
79526;SDS011;68974;47.754;-3.364;2023-05-10T07:23:38;16.95;;;2.60;;
79526;SDS011;68974;47.754;-3.364;2023-05-10T07:26:03;16.50;;;2.92;;
79526;SDS011;68974;47.754;-3.364;2023-05-10T07:28:29;15.07;;;2.70;;
79526;SDS011;68974;47.754;-3.364;2023-05-10T07:30:54;11.90;;;2.67;;
79526;SDS011;68974;47.754;-3.364;2023-05-10T07:33:19;16.60;;;2.33;;
79526;SDS011;68974;47.754;-3.364;2023-05-10T07:35:45;13.65;;;2.17;;
79526;SDS011;68974;47.754;-3.364;2023-05-10T07:38:10;9.82;;;1.70;;
79526;SDS011;68974;47.754;-3.364;2023-05-10T07:40:36;16.80;;;2.05;;
79526;SDS011;68974;47.754;-3.364;2023-05-10T07:43:01;14.68;;;3.67;;
79526;SDS011;68974;47.754;-3.364;2023-05-10T07:45:27;20.70;;;3.78;;
79526;SDS011;68974;47.754;-3.364;2023-05-10T07:47:53;14.38;;;2.75;;
79526;SDS011;68974;47.754;-3.364;2023-05-10T07:50:18;12.13;;;2.42;;
79526;SDS011;68974;47.754;-3.364;2023-05-10T07:52:44;10.63;;;1.95;;
79526;SDS011;68974;47.754;-3.364;2023-05-10T07:55:09;10.73;;;2.30;;
79526;SDS011;68974;47.754;-3.364;2023-05-10T07:57:35;8.48;;;1.50;;
79526;SDS011;68974;47.754;-3.364;2023-05-10T08:00:01;10.00;;;2.72;;
79526;SDS011;68974;47.754;-3.364;2023-05-10T08:02:27;11.00;;;1.60;;
79526;SDS011;68974;47.754;-3.364;2023-05-10T08:04:52;18.95;;;2.20;;
79526;SDS011;68974;47.754;-3.364;2023-05-10T08:07:18;26.92;;;3.35;;
79526;SDS011;68974;47.754;-3.364;2023-05-10T08:09:43;12.10;;;2.38;;
79526;SDS011;68974;47.754;-3.364;2023-05-10T08:12:08;16.42;;;3.15;;
79526;SDS011;68974;47.754;-3.364;2023-05-10T08:14:34;8.25;;;1.38;;
79526;SDS011;68974;47.754;-3.364;2023-05-10T08:17:01;4.72;;;1.10;;
79526;SDS011;68974;47.754;-3.364;2023-05-10T08:19:28;7.30;;;2.50;;
79526;SDS011;68974;47.754;-3.364;2023-05-10T08:21:53;6.78;;;1.13;;
79526;SDS011;68974;47.754;-3.364;2023-05-10T08:24:20;6.93;;;1.35;;
79526;SDS011;68974;47.754;-3.364;2023-05-10T08:26:46;7.28;;;1.60;;
79526;SDS011;68974;47.754;-3.364;2023-05-10T08:29:12;7.30;;;1.63;;
79526;SDS011;68974;47.754;-3.364;2023-05-10T08:31:38;6.57;;;1.52;;
79526;SDS011;68974;47.754;-3.364;2023-05-10T08:34:03;5.55;;;1.05;;
79526;SDS011;68974;47.754;-3.364;2023-05-10T08:36:28;5.35;;;1.23;;
79526;SDS011;68974;47.754;-3.364;2023-05-10T08:38:54;4.50;;;1.00;;
79526;SDS011;68974;47.754;-3.364;2023-05-10T08:41:20;5.00;;;1.27;;
79526;SDS011;68974;47.754;-3.364;2023-05-10T08:43:47;5.55;;;1.30;;
79526;SDS011;68974;47.754;-3.364;2023-05-10T08:46:16;7.85;;;1.65;;
79526;SDS011;68974;47.754;-3.364;2023-05-10T08:48:44;5.60;;;1.30;;
79526;SDS011;68974;47.754;-3.364;2023-05-10T08:51:11;11.35;;;2.05;;
79526;SDS011;68974;47.754;-3.364;2023-05-10T08:53:39;17.98;;;2.50;;
79526;SDS011;68974;47.754;-3.364;2023-05-10T08:56:04;14.88;;;2.55;;
79526;SDS011;68974;47.754;-3.364;2023-05-10T08:58:30;24.38;;;3.38;;
79526;SDS011;68974;47.754;-3.364;2023-05-10T09:00:57;18.52;;;5.25;;
79526;SDS011;68974;47.754;-3.364;2023-05-10T09:03:23;7.38;;;1.92;;
79526;SDS011;68974;47.754;-3.364;2023-05-10T09:05:48;9.95;;;2.60;;
79526;SDS011;68974;47.754;-3.364;2023-05-10T09:08:14;9.95;;;1.90;;
79526;SDS011;68974;47.754;-3.364;2023-05-10T09:10:42;8.50;;;1.42;;
79526;SDS011;68974;47.754;-3.364;2023-05-10T09:13:12;16.45;;;2.58;;
79526;SDS011;68974;47.754;-3.364;2023-05-10T09:15:40;8.60;;;1.70;;
79526;SDS011;68974;47.754;-3.364;2023-05-10T09:18:05;6.18;;;1.52;;
79526;SDS011;68974;47.754;-3.364;2023-05-10T09:20:31;9.98;;;1.52;;
79526;SDS011;68974;47.754;-3.364;2023-05-10T09:22:56;6.15;;;1.80;;
79526;SDS011;68974;47.754;-3.364;2023-05-10T09:25:22;8.85;;;1.80;;
79526;SDS011;68974;47.754;-3.364;2023-05-10T09:27:48;11.77;;;1.83;;
79526;SDS011;68974;47.754;-3.364;2023-05-10T09:30:31;8.68;;;1.42;;
79526;SDS011;68974;47.754;-3.364;2023-05-10T09:32:58;7.13;;;1.40;;
79526;SDS011;68974;47.754;-3.364;2023-05-10T09:35:25;7.57;;;1.33;;
79526;SDS011;68974;47.754;-3.364;2023-05-10T09:37:53;7.28;;;1.90;;
79526;SDS011;68974;47.754;-3.364;2023-05-10T09:40:20;4.07;;;1.38;;
79526;SDS011;68974;47.754;-3.364;2023-05-10T09:42:55;9.43;;;2.85;;
79526;SDS011;68974;47.754;-3.364;2023-05-10T09:45:24;6.43;;;1.58;;
79526;SDS011;68974;47.754;-3.364;2023-05-10T09:47:54;10.00;;;1.70;;
79526;SDS011;68974;47.754;-3.364;2023-05-10T09:50:20;8.70;;;2.00;;
79526;SDS011;68974;47.754;-3.364;2023-05-10T09:52:54;6.72;;;1.58;;
79526;SDS011;68974;47.754;-3.364;2023-05-10T09:55:25;7.45;;;1.85;;
79526;SDS011;68974;47.754;-3.364;2023-05-10T09:58:00;4.47;;;1.17;;
79526;SDS011;68974;47.754;-3.364;2023-05-10T10:00:27;7.68;;;1.50;;
79526;SDS011;68974;47.754;-3.364;2023-05-10T10:02:57;15.25;;;2.85;;
79526;SDS011;68974;47.754;-3.364;2023-05-10T10:05:33;20.05;;;2.80;;
79526;SDS011;68974;47.754;-3.364;2023-05-10T10:08:02;16.52;;;3.38;;
79526;SDS011;68974;47.754;-3.364;2023-05-10T10:10:29;11.40;;;2.75;;
79526;SDS011;68974;47.754;-3.364;2023-05-10T10:12:56;6.78;;;1.73;;
79526;SDS011;68974;47.754;-3.364;2023-05-10T10:15:22;7.40;;;1.77;;
79526;SDS011;68974;47.754;-3.364;2023-05-10T10:17:48;11.13;;;1.90;;
79526;SDS011;68974;47.754;-3.364;2023-05-10T10:20:15;24.73;;;3.60;;
79526;SDS011;68974;47.754;-3.364;2023-05-10T10:22:41;32.40;;;5.72;;
79526;SDS011;68974;47.754;-3.364;2023-05-10T10:25:07;12.57;;;2.40;;
79526;SDS011;68974;47.754;-3.364;2023-05-10T10:35:19;16.25;;;3.03;;
79526;SDS011;68974;47.754;-3.364;2023-05-10T10:37:45;12.80;;;2.10;;
79526;SDS011;68974;47.754;-3.364;2023-05-10T10:40:31;12.55;;;2.08;;
79526;SDS011;68974;47.754;-3.364;2023-05-10T10:42:57;16.70;;;2.53;;
79526;SDS011;68974;47.754;-3.364;2023-05-10T10:45:43;12.00;;;2.03;;
79526;SDS011;68974;47.754;-3.364;2023-05-10T10:48:21;11.23;;;2.10;;
79526;SDS011;68974;47.754;-3.364;2023-05-10T10:50:47;8.45;;;2.28;;
79526;SDS011;68974;47.754;-3.364;2023-05-10T10:53:21;17.13;;;2.95;;
79526;SDS011;68974;47.754;-3.364;2023-05-10T10:55:47;14.93;;;2.60;;
79526;SDS011;68974;47.754;-3.364;2023-05-10T10:58:28;16.25;;;3.10;;
79526;SDS011;68974;47.754;-3.364;2023-05-10T11:03:40;18.42;;;2.97;;
79526;SDS011;68974;47.754;-3.364;2023-05-10T11:06:28;11.90;;;2.55;;
79526;SDS011;68974;47.754;-3.364;2023-05-10T11:08:58;20.30;;;2.85;;
79526;SDS011;68974;47.754;-3.364;2023-05-10T11:11:24;12.77;;;3.33;;
79526;SDS011;68974;47.754;-3.364;2023-05-10T11:13:50;13.73;;;2.90;;
79526;SDS011;68974;47.754;-3.364;2023-05-10T11:16:20;18.25;;;6.18;;
79526;SDS011;68974;47.754;-3.364;2023-05-10T11:19:07;11.55;;;2.40;;
79526;SDS011;68974;47.754;-3.364;2023-05-10T11:21:34;13.55;;;2.28;;
79526;SDS011;68974;47.754;-3.364;2023-05-10T11:24:13;9.82;;;2.33;;
79526;SDS011;68974;47.754;-3.364;2023-05-10T11:26:40;13.63;;;2.22;;
79526;SDS011;68974;47.754;-3.364;2023-05-10T11:29:05;13.27;;;2.15;;
79526;SDS011;68974;47.754;-3.364;2023-05-10T11:31:31;11.23;;;2.17;;
79526;SDS011;68974;47.754;-3.364;2023-05-10T11:33:58;11.98;;;2.28;;
79526;SDS011;68974;47.754;-3.364;2023-05-10T11:36:25;10.43;;;2.00;;
79526;SDS011;68974;47.754;-3.364;2023-05-10T11:38:57;11.60;;;2.20;;
79526;SDS011;68974;47.754;-3.364;2023-05-10T11:41:23;12.23;;;2.20;;
79526;SDS011;68974;47.754;-3.364;2023-05-10T11:43:50;8.05;;;2.05;;
79526;SDS011;68974;47.754;-3.364;2023-05-10T11:46:18;7.60;;;1.80;;
79526;SDS011;68974;47.754;-3.364;2023-05-10T11:48:51;9.45;;;1.67;;
79526;SDS011;68974;47.754;-3.364;2023-05-10T11:51:21;6.30;;;1.85;;
79526;SDS011;68974;47.754;-3.364;2023-05-10T11:53:49;15.02;;;2.53;;
79526;SDS011;68974;47.754;-3.364;2023-05-10T11:56:15;8.75;;;1.60;;
79526;SDS011;68974;47.754;-3.364;2023-05-10T11:58:41;10.63;;;1.92;;
79526;SDS011;68974;47.754;-3.364;2023-05-10T12:01:07;9.27;;;1.73;;
79526;SDS011;68974;47.754;-3.364;2023-05-10T12:03:34;9.02;;;1.83;;
79526;SDS011;68974;47.754;-3.364;2023-05-10T12:06:00;5.88;;;1.45;;
79526;SDS011;68974;47.754;-3.364;2023-05-10T12:08:28;6.55;;;1.63;;
79526;SDS011;68974;47.754;-3.364;2023-05-10T12:11:03;7.03;;;2.13;;
79526;SDS011;68974;47.754;-3.364;2023-05-10T12:13:30;7.50;;;1.40;;
79526;SDS011;68974;47.754;-3.364;2023-05-10T12:15:57;10.05;;;2.17;;
79526;SDS011;68974;47.754;-3.364;2023-05-10T12:18:23;11.23;;;3.00;;
79526;SDS011;68974;47.754;-3.364;2023-05-10T12:20:52;12.73;;;2.28;;
79526;SDS011;68974;47.754;-3.364;2023-05-10T12:23:21;14.73;;;2.63;;
79526;SDS011;68974;47.754;-3.364;2023-05-10T12:25:46;15.75;;;3.88;;
79526;SDS011;68974;47.754;-3.364;2023-05-10T12:28:12;11.05;;;1.95;;
79526;SDS011;68974;47.754;-3.364;2023-05-10T12:30:37;12.63;;;2.15;;
79526;SDS011;68974;47.754;-3.364;2023-05-10T12:33:11;13.85;;;1.80;;
79526;SDS011;68974;47.754;-3.364;2023-05-10T12:35:48;9.10;;;2.03;;
79526;SDS011;68974;47.754;-3.364;2023-05-10T12:38:34;8.95;;;1.52;;
79526;SDS011;68974;47.754;-3.364;2023-05-10T12:41:12;11.93;;;2.35;;
79526;SDS011;68974;47.754;-3.364;2023-05-10T12:43:40;9.48;;;3.05;;
79526;SDS011;68974;47.754;-3.364;2023-05-10T12:46:06;10.23;;;2.50;;
79526;SDS011;68974;47.754;-3.364;2023-05-10T12:48:42;11.68;;;2.00;;
79526;SDS011;68974;47.754;-3.364;2023-05-10T12:51:09;9.25;;;1.92;;
79526;SDS011;68974;47.754;-3.364;2023-05-10T12:53:37;6.03;;;1.85;;
79526;SDS011;68974;47.754;-3.364;2023-05-10T12:56:03;9.10;;;1.83;;
79526;SDS011;68974;47.754;-3.364;2023-05-10T12:58:28;7.88;;;1.63;;
79526;SDS011;68974;47.754;-3.364;2023-05-10T13:00:54;5.60;;;1.75;;
79526;SDS011;68974;47.754;-3.364;2023-05-10T13:03:21;9.23;;;1.92;;
79526;SDS011;68974;47.754;-3.364;2023-05-10T13:05:47;10.38;;;2.22;;
79526;SDS011;68974;47.754;-3.364;2023-05-10T13:08:12;10.38;;;2.28;;
79526;SDS011;68974;47.754;-3.364;2023-05-10T13:10:37;8.60;;;1.60;;
79526;SDS011;68974;47.754;-3.364;2023-05-10T13:13:03;10.75;;;1.85;;
79526;SDS011;68974;47.754;-3.364;2023-05-10T13:15:28;6.88;;;1.80;;
79526;SDS011;68974;47.754;-3.364;2023-05-10T13:17:54;5.50;;;1.50;;
79526;SDS011;68974;47.754;-3.364;2023-05-10T13:20:19;8.65;;;1.70;;
79526;SDS011;68974;47.754;-3.364;2023-05-10T13:22:45;8.85;;;2.08;;
79526;SDS011;68974;47.754;-3.364;2023-05-10T13:25:11;12.40;;;4.13;;
79526;SDS011;68974;47.754;-3.364;2023-05-10T13:27:37;4.57;;;1.50;;
79526;SDS011;68974;47.754;-3.364;2023-05-10T13:30:04;6.82;;;1.70;;
79526;SDS011;68974;47.754;-3.364;2023-05-10T13:32:30;8.05;;;1.33;;
79526;SDS011;68974;47.754;-3.364;2023-05-10T13:34:55;8.73;;;1.85;;
79526;SDS011;68974;47.754;-3.364;2023-05-10T13:37:21;8.40;;;1.88;;
79526;SDS011;68974;47.754;-3.364;2023-05-10T13:39:47;6.35;;;1.85;;
79526;SDS011;68974;47.754;-3.364;2023-05-10T13:42:13;6.85;;;1.88;;
79526;SDS011;68974;47.754;-3.364;2023-05-10T13:44:38;6.30;;;1.35;;
79526;SDS011;68974;47.754;-3.364;2023-05-10T13:47:04;5.32;;;1.10;;
79526;SDS011;68974;47.754;-3.364;2023-05-10T13:49:30;8.82;;;1.52;;
79526;SDS011;68974;47.754;-3.364;2023-05-10T13:51:55;6.00;;;1.33;;
79526;SDS011;68974;47.754;-3.364;2023-05-10T13:54:21;6.68;;;2.70;;
79526;SDS011;68974;47.754;-3.364;2023-05-10T13:56:47;5.13;;;1.95;;
79526;SDS011;68974;47.754;-3.364;2023-05-10T13:59:13;7.50;;;1.50;;
79526;SDS011;68974;47.754;-3.364;2023-05-10T14:01:39;3.88;;;1.38;;
79526;SDS011;68974;47.754;-3.364;2023-05-10T14:04:08;12.38;;;1.30;;
79526;SDS011;68974;47.754;-3.364;2023-05-10T14:09:01;7.72;;;1.63;;
79526;SDS011;68974;47.754;-3.364;2023-05-10T14:11:27;7.75;;;1.35;;
79526;SDS011;68974;47.754;-3.364;2023-05-10T14:13:52;8.90;;;1.58;;
79526;SDS011;68974;47.754;-3.364;2023-05-10T14:16:18;10.88;;;1.63;;
79526;SDS011;68974;47.754;-3.364;2023-05-10T14:18:44;8.57;;;1.45;;
79526;SDS011;68974;47.754;-3.364;2023-05-10T14:21:09;10.48;;;1.83;;
79526;SDS011;68974;47.754;-3.364;2023-05-10T14:23:34;5.07;;;1.20;;
79526;SDS011;68974;47.754;-3.364;2023-05-10T14:26:00;8.63;;;1.60;;
79526;SDS011;68974;47.754;-3.364;2023-05-10T14:28:26;7.00;;;1.42;;
79526;SDS011;68974;47.754;-3.364;2023-05-10T14:30:51;7.63;;;1.40;;
79526;SDS011;68974;47.754;-3.364;2023-05-10T14:33:17;8.48;;;1.52;;
79526;SDS011;68974;47.754;-3.364;2023-05-10T14:35:42;8.45;;;1.45;;
79526;SDS011;68974;47.754;-3.364;2023-05-10T14:38:08;7.75;;;1.52;;
79526;SDS011;68974;47.754;-3.364;2023-05-10T14:40:33;5.53;;;1.52;;
79526;SDS011;68974;47.754;-3.364;2023-05-10T14:42:59;6.85;;;1.25;;
79526;SDS011;68974;47.754;-3.364;2023-05-10T14:45:25;6.55;;;1.75;;
79526;SDS011;68974;47.754;-3.364;2023-05-10T14:47:50;6.95;;;1.63;;
79526;SDS011;68974;47.754;-3.364;2023-05-10T14:50:16;6.78;;;1.02;;
79526;SDS011;68974;47.754;-3.364;2023-05-10T14:52:43;6.93;;;1.70;;
79526;SDS011;68974;47.754;-3.364;2023-05-10T14:55:08;8.70;;;1.35;;